Details From TNCM - TNCM
To MKJS - Sangster Intl
Flight Number -
Tags MAARTEEN JAMAICA
Created
Modified
Stats Distance 845 nm / 1,565 km
Max Altitude 0 ft / 0 m
Waypoints 5
Social Downloads 1
Likes 0
Share VATSIM

Download

Looking for another format? Having issues loading an existing format? Contact us
Advertisement - Login to hide

Notes

None

Route

TNCM MELLA MAROT ALMUS MKJS

ID Type Via Altitude Latitude Longitude Leg Dist Tot Dist Heading (true) Name
O TNCM APT - 0 ft / 0 m 18.04095˚ -63.10890˚ - 0 nm - St Maarten - Princess Juliana Intl
MELLA FIX - 0 ft / 0 m 18.20000˚ -68.00000˚ 279 nm 279 nm 273° / 271° -
MAROT FIX - 0 ft / 0 m 18.49516˚ -72.91222˚ 280 nm 559 nm 274° / 273° -
ALMUS FIX - 0 ft / 0 m 18.47639˚ -77.57445˚ 265 nm 825 nm 270° / 269° -
O MKJS APT - 0 ft / 0 m 18.50372˚ -77.91336˚ 19 nm 844 nm 275° / 275° Sangster Intl

Altitude Profile

Advertisement - Login to hide

Weather


0- 5 10 15 20 25 30 35+ Temperature / ° C

Clouds and Precipitation
Forecast for 2018-05-21 18:00 UTC. Updated 20 minutes ago

Ground ~20,000 ft ~40,000 ft Winds

TNCM

Details ICAO TNCM (SXM)
Name St Maarten - Princess Juliana Intl
Region Caribbean Netherlands, Aruba, Curaçao, Sint Maarten
Timezone Unknown (UTC+0.0)
Stats Elevation 12 ft / 4 m (AMSL)
Location 18.040889° -63.108974°
Runways 1
Magnetic Variation 14.337° W

METAR

TNCM 211500Z 08011KT 040V130 9999 SCT018 30/21 Q1017 A3003 NOSIG

Decode

TAF

TAF TNCM 211131Z 2112/2212 08010KT P6SM VCSH FEW018 FM211600 10015KT P6SM VCSH SCT020 FM212300 09010KT P6SM VCSH SCT018 SCT040

Decode

Departure Runways

ID Width Length Bearing (true) Bearing (mag) Surface Threshold Offset Overrun Length
10 148 ft / 45 m 7,464 ft / 2,275 m 81.43° 95.77° Asphalt 0 ft / 0 m 151 ft / 46 m
28 148 ft / 45 m 7,464 ft / 2,275 m 261.44° 275.78° Asphalt 397 ft / 121 m 0 ft / 0 m

MKJS

Details ICAO MKJS (MBJ)
Name Sangster Intl
Region Jamaica
Timezone America/Jamaica (UTC-5.0)
Stats Elevation 6 ft / 2 m (AMSL)
Location 18.503549° -77.913698°
Runways 1
Magnetic Variation 7.005° W

METAR

MKJS 211500Z 07013KT 9999 FEW022 BKN038 30/24 Q1013

Decode

TAF

TAF MKJS 211115Z 2112/2212 07015KT 9999 FEW022 BKN032 TEMPO 2116/2122 6000 TSRA BKN018 BKN020CB BECMG 2201/2203 14005KT SCT020 FEW022CB

Decode

Destination Runways

ID Width Length Bearing (true) Bearing (mag) Surface Threshold Offset Overrun Length
07 161 ft / 49 m 8,495 ft / 2,589 m 65.37° 72.38° Asphalt 220 ft / 67 m 312 ft / 95 m
25 161 ft / 49 m 8,495 ft / 2,589 m 245.37° 252.38° Asphalt 577 ft / 176 m 200 ft / 61 m

Approach Navaids

Runway Type Ident Frequency Range Bearing (true) Bearing (mag) Slope Elevation
07 Localiser ISIA 109.50 MHz 18 nm / 33 km 65.41° 72.41° - 4 ft / 1 m (AMSL)
07 Glidescope ISIA 109.50 MHz 10 nm / 19 km 65.37° 72.38° 3.00° 4 ft / 1 m (AMSL)

Popular Alternatives